Pagrindinis puslapis
METAR-TAF:

METAR-TAF

Oro uostai :

Ningbo, Kinija

platuma: 29-49-36N, ilguma: 121-27-43E, Aukštis: 4 m

Dabartinis oras

Ataskaita buvo paskelbta 1 valandą ir 12 minutes, ne 12:00 UTC
Vėjas 4 kt iš Šiaurės Vakarų
Temperatūra 16°C
Drėgmė 77%
Slėgis 1025 hPa
Matomumas: 9000 m
Su prošvaistėmis ne aukštis 3000 ft

METAR: ZSNB 211200Z 32002MPS 9000 BKN030 16/12 Q1025 NOSIG

Laikas: 21:12 (13:12 UTC)

Prognozė

Ataskaita buvo paskelbta 4 valandos ir 52 minutes, ne 08:20 UTC
Prognozė galioja nuo 21 metu 12 UTC su 22 metu 12 UTC
Vėjas 6 kt iš Šiaurės/Šiaurės Rytų
Matomumas: 5000 m
Su prošvaistėmis ne aukštis 3300 ft
rūkana

TAF: ZSNB 210820Z 2112/2212 03003MPS 5000 BR BKN033 TX21/2206Z TN12/2121Z

Orai ataskaitas ir orų prognozės (METAR, TAF).

turimą stotys yra geltonos ir raudonos taškus žemėlapyje.

Perkelti pele per norėdami pamatyti stoties vardą.

Tada spustelėkite, norėdami matyti oro stebėjimo ir prognozės.

Norėdami pakeisti žemėlapį: spustelėkite ant žalios mygtukų su juodo kryžiaus žemyn,; žalią mygtuką su brūkšneliu, jei norite nutolinti; arba žalių rodyklių gretimoms žemėlapius.


METAR-TAF: